createdAt,value
2018-03-14T00:00:50.940Z,7.72
2018-03-14T00:03:18.502Z,7.71
2018-03-14T00:05:46.068Z,7.74
2018-03-14T00:08:13.659Z,7.80
2018-03-14T00:10:41.206Z,7.88
2018-03-14T00:13:08.778Z,7.89
2018-03-14T00:15:36.520Z,7.92
2018-03-14T00:18:04.090Z,7.96
2018-03-14T00:20:31.646Z,7.98
2018-03-14T00:22:59.257Z,7.98
2018-03-14T00:25:26.831Z,7.98
2018-03-14T00:27:54.382Z,7.99
2018-03-14T00:30:22.174Z,8.01
2018-03-14T00:32:49.727Z,8.04
2018-03-14T00:35:17.295Z,8.06
2018-03-14T00:37:44.900Z,8.09
2018-03-14T00:40:12.469Z,8.10
2018-03-14T00:42:40.016Z,8.08
2018-03-14T00:45:07.615Z,8.10
2018-03-14T00:47:35.163Z,8.15
2018-03-14T00:50:02.722Z,8.21
2018-03-14T00:52:30.304Z,8.17
2018-03-14T00:54:57.854Z,8.18
2018-03-14T00:57:25.415Z,8.18
2018-03-14T00:59:53.290Z,8.16
2018-03-14T01:02:20.859Z,8.17
2018-03-14T01:04:48.425Z,8.18
2018-03-14T01:07:16.214Z,8.25
2018-03-14T01:09:43.769Z,8.23
2018-03-14T01:12:11.433Z,8.23
2018-03-14T01:14:38.952Z,8.25
2018-03-14T01:17:06.505Z,8.21
2018-03-14T01:19:34.063Z,8.24
2018-03-14T01:22:01.937Z,8.19
2018-03-14T01:24:29.510Z,8.22
2018-03-14T01:26:57.089Z,8.22
2018-03-14T01:29:24.681Z,8.22
2018-03-14T01:31:52.237Z,8.27
2018-03-14T01:34:19.838Z,8.28
2018-03-14T01:36:47.420Z,8.29
2018-03-14T01:39:14.974Z,8.27
2018-03-14T01:41:42.530Z,8.25
2018-03-14T01:44:10.120Z,8.21
2018-03-14T01:46:37.681Z,8.20
2018-03-14T01:49:05.242Z,8.18
2018-03-14T01:51:32.840Z,8.21
2018-03-14T01:54:00.411Z,8.25
2018-03-14T01:56:27.964Z,8.26
2018-03-14T01:58:55.556Z,8.33
2018-03-14T02:01:23.122Z,8.37
2018-03-14T02:03:50.661Z,8.42
2018-03-14T02:06:18.245Z,8.44
2018-03-14T02:08:45.791Z,8.42
2018-03-14T02:11:13.399Z,8.47
2018-03-14T02:13:41.117Z,8.51
2018-03-14T02:16:08.665Z,8.49
2018-03-14T02:18:36.222Z,8.47
2018-03-14T02:21:03.834Z,8.51
2018-03-14T02:23:31.386Z,8.50
2018-03-14T02:25:58.941Z,8.54
2018-03-14T02:28:26.528Z,8.53
2018-03-14T02:30:54.109Z,8.54
2018-03-14T02:33:21.678Z,8.51
2018-03-14T02:35:49.258Z,8.51
2018-03-14T02:38:16.822Z,8.49
2018-03-14T02:40:44.378Z,8.44
2018-03-14T02:43:11.963Z,8.44
2018-03-14T02:45:39.513Z,8.42
2018-03-14T02:48:07.048Z,8.37
2018-03-14T02:50:34.622Z,8.33
2018-03-14T02:53:02.159Z,8.29
2018-03-14T02:55:29.714Z,8.31
2018-03-14T02:57:57.291Z,8.29
2018-03-14T03:00:24.809Z,8.30
2018-03-14T03:02:52.371Z,8.30
2018-03-14T03:05:20.048Z,8.31
2018-03-14T03:07:47.591Z,8.36
2018-03-14T03:10:15.128Z,8.39
2018-03-14T03:12:43.010Z,8.41
2018-03-14T03:15:10.547Z,8.40
2018-03-14T03:17:38.127Z,8.40
2018-03-14T03:20:05.841Z,8.39
2018-03-14T03:22:33.381Z,8.35
2018-03-14T03:25:00.926Z,8.35
2018-03-14T03:27:28.506Z,8.34
2018-03-14T03:29:56.043Z,8.32
2018-03-14T03:32:23.571Z,7.84
2018-03-14T03:34:51.145Z,7.82
2018-03-14T03:37:18.682Z,7.75
2018-03-14T03:39:46.222Z,7.74
2018-03-14T03:42:13.782Z,7.72
2018-03-14T03:44:41.314Z,7.80
2018-03-14T03:47:08.889Z,7.81
2018-03-14T03:49:36.563Z,7.89
2018-03-14T03:52:04.098Z,7.94
2018-03-14T03:54:31.645Z,7.94
2018-03-14T03:56:59.506Z,7.88
2018-03-14T03:59:27.043Z,7.82
2018-03-14T04:01:54.581Z,7.87
2018-03-14T04:04:22.163Z,7.93
2018-03-14T04:06:49.695Z,8.01
2018-03-14T04:09:17.237Z,8.09
2018-03-14T04:11:44.821Z,8.18
2018-03-14T04:14:12.358Z,8.22
2018-03-14T04:16:39.905Z,8.23
2018-03-14T04:19:07.770Z,8.28
2018-03-14T04:21:35.335Z,8.29
2018-03-14T04:24:02.864Z,8.29
2018-03-14T04:26:30.522Z,8.28
2018-03-14T04:28:58.062Z,8.21
2018-03-14T04:31:25.602Z,8.15
2018-03-14T04:33:53.194Z,8.01
2018-03-14T04:36:20.726Z,7.99
2018-03-14T04:38:48.260Z,7.87
2018-03-14T04:41:16.129Z,7.84
2018-03-14T04:43:43.666Z,7.80
2018-03-14T04:46:11.948Z,7.76
2018-03-14T04:48:39.535Z,7.70
2018-03-14T04:51:07.082Z,7.70
2018-03-14T04:53:34.623Z,7.71
2018-03-14T04:56:02.343Z,7.59
2018-03-14T04:58:29.898Z,7.56
2018-03-14T05:00:57.439Z,7.55
2018-03-14T05:03:24.984Z,7.59
2018-03-14T05:05:52.534Z,7.58
2018-03-14T05:08:20.302Z,7.64
2018-03-14T05:10:47.846Z,7.70
2018-03-14T05:13:15.382Z,7.72
2018-03-14T05:15:42.973Z,7.78
2018-03-14T05:18:10.514Z,7.80
2018-03-14T05:20:38.046Z,7.89
2018-03-14T05:23:05.634Z,7.96
2018-03-14T05:25:33.178Z,8.07
2018-03-14T05:28:00.723Z,8.14
2018-03-14T05:30:28.314Z,8.23
2018-03-14T05:32:55.879Z,8.33
2018-03-14T05:35:23.427Z,8.46
2018-03-14T05:37:51.102Z,8.55
2018-03-14T05:40:18.634Z,8.66
2018-03-14T05:42:46.179Z,8.74
2018-03-14T05:45:13.755Z,8.87
2018-03-14T05:47:41.300Z,8.96
2018-03-14T05:50:08.839Z,9.07
2018-03-14T05:52:36.430Z,9.16
2018-03-14T05:55:03.997Z,9.29
2018-03-14T05:57:31.538Z,9.46
2018-03-14T05:59:59.269Z,9.60
2018-03-14T06:02:26.838Z,9.75
2018-03-14T06:04:54.394Z,10.02
2018-03-14T06:07:22.294Z,10.21
2018-03-14T06:09:49.847Z,10.36
2018-03-14T06:12:17.388Z,10.37
2018-03-14T06:14:44.979Z,10.41
2018-03-14T06:17:12.520Z,10.35
2018-03-14T06:19:40.080Z,10.33
2018-03-14T06:22:07.651Z,10.23
2018-03-14T06:24:35.187Z,10.26
2018-03-14T06:27:02.717Z,10.32
2018-03-14T06:29:30.294Z,10.31
2018-03-14T06:31:57.873Z,10.31
2018-03-14T06:34:25.419Z,10.45
2018-03-14T06:36:53.041Z,10.51
2018-03-14T06:39:20.609Z,10.62
2018-03-14T06:41:48.159Z,10.67
2018-03-14T06:44:15.743Z,10.71
2018-03-14T06:46:43.277Z,10.77
2018-03-14T06:49:10.825Z,10.76
2018-03-14T06:51:38.591Z,10.75
2018-03-14T06:54:06.127Z,10.71
2018-03-14T06:56:33.666Z,10.65
2018-03-14T06:59:12.983Z,10.51
2018-03-14T07:01:52.197Z,10.44
2018-03-14T07:04:31.400Z,10.38
2018-03-14T07:06:58.936Z,10.31
2018-03-14T07:09:26.477Z,10.27
2018-03-14T07:11:54.052Z,10.23
2018-03-14T07:14:21.626Z,10.21
2018-03-14T07:16:49.180Z,10.18
2018-03-14T07:19:16.822Z,10.15
2018-03-14T07:21:44.369Z,10.16
2018-03-14T07:24:11.915Z,10.27
2018-03-14T07:26:39.523Z,10.37
2018-03-14T07:29:07.067Z,10.37
2018-03-14T07:31:34.622Z,10.43
2018-03-14T07:34:02.212Z,10.54
2018-03-14T07:36:29.763Z,10.68
2018-03-14T07:38:57.311Z,10.84
2018-03-14T07:41:24.882Z,10.99
2018-03-14T07:43:52.421Z,11.11
2018-03-14T07:46:19.971Z,11.34
2018-03-14T07:48:47.557Z,11.39
2018-03-14T07:51:15.123Z,11.53
2018-03-14T07:53:42.676Z,11.73
2018-03-14T07:56:10.344Z,11.96
2018-03-14T07:58:37.887Z,12.09
2018-03-14T08:01:05.477Z,12.21
2018-03-14T08:03:33.041Z,12.37
2018-03-14T08:06:00.601Z,12.46
2018-03-14T08:08:28.167Z,12.54
2018-03-14T08:10:55.716Z,12.67
2018-03-14T08:13:23.348Z,12.78
2018-03-14T08:15:51.015Z,12.77
2018-03-14T08:18:18.563Z,12.77
2018-03-14T08:20:46.102Z,12.84
2018-03-14T08:23:13.678Z,12.98
2018-03-14T08:25:41.214Z,13.00
2018-03-14T08:28:08.754Z,13.15
2018-03-14T08:30:36.333Z,13.29
2018-03-14T08:33:03.907Z,13.24
2018-03-14T08:35:31.458Z,13.36
2018-03-14T08:37:59.281Z,13.31
2018-03-14T08:40:26.825Z,13.35
2018-03-14T08:42:54.366Z,13.36
2018-03-14T08:45:22.106Z,13.42
2018-03-14T08:47:49.735Z,13.46
2018-03-14T08:50:17.276Z,13.61
2018-03-14T08:52:45.018Z,13.67
2018-03-14T08:55:12.603Z,13.51
2018-03-14T08:57:40.155Z,13.28
2018-03-14T09:00:07.847Z,13.03
2018-03-14T09:02:35.406Z,12.88
2018-03-14T09:05:03.005Z,12.86
2018-03-14T09:07:30.585Z,12.68
2018-03-14T09:09:58.148Z,12.70
2018-03-14T09:12:25.701Z,12.74
2018-03-14T09:14:53.273Z,12.55
2018-03-14T09:17:20.820Z,12.68
2018-03-14T09:19:48.363Z,12.79
2018-03-14T09:22:15.935Z,12.90
2018-03-14T09:24:43.490Z,13.00
2018-03-14T09:27:11.032Z,13.16
2018-03-14T09:29:38.794Z,13.22
2018-03-14T09:32:06.358Z,13.28
2018-03-14T09:34:33.938Z,13.41
2018-03-14T09:37:01.507Z,13.50
2018-03-14T09:39:29.055Z,13.54
2018-03-14T09:41:56.610Z,13.53
2018-03-14T09:44:24.360Z,13.59
2018-03-14T09:46:51.919Z,13.53
2018-03-14T09:49:19.449Z,13.57
2018-03-14T09:51:47.355Z,13.74
2018-03-14T09:54:14.908Z,13.67
2018-03-14T09:56:42.471Z,13.85
2018-03-14T09:59:10.034Z,13.80
2018-03-14T10:01:37.589Z,13.85
2018-03-14T10:04:05.154Z,13.96
2018-03-14T10:06:32.741Z,14.02
2018-03-14T10:09:00.295Z,14.07
2018-03-14T10:11:27.845Z,13.86
2018-03-14T10:13:55.434Z,13.97
2018-03-14T10:16:23.000Z,14.10
2018-03-14T10:18:50.546Z,14.12
2018-03-14T10:21:18.119Z,14.23
2018-03-14T10:23:45.673Z,14.18
2018-03-14T10:26:13.256Z,14.20
2018-03-14T10:28:40.982Z,14.20
2018-03-14T10:31:08.574Z,14.21
2018-03-14T10:33:36.119Z,14.30
2018-03-14T10:36:04.434Z,14.47
2018-03-14T10:38:31.971Z,14.69
2018-03-14T10:40:59.519Z,14.78
2018-03-14T10:43:28.181Z,14.85
2018-03-14T10:45:55.715Z,14.95
2018-03-14T10:48:23.255Z,15.07
2018-03-14T10:50:51.192Z,15.08
2018-03-14T10:53:18.809Z,15.23
2018-03-14T10:55:46.362Z,15.34
2018-03-14T10:58:14.247Z,15.37
2018-03-14T11:00:47.421Z,15.40
2018-03-14T11:03:18.876Z,15.42
2018-03-14T11:05:46.413Z,15.53
2018-03-14T11:08:13.988Z,15.52
2018-03-14T11:10:42.417Z,15.58
2018-03-14T11:13:09.956Z,15.52
2018-03-14T11:15:37.533Z,15.48
2018-03-14T11:18:05.131Z,15.61
2018-03-14T11:20:32.687Z,15.72
2018-03-14T11:23:00.225Z,15.83
2018-03-14T11:25:27.803Z,15.72
2018-03-14T11:27:55.349Z,15.47
2018-03-14T11:30:22.893Z,15.16
2018-03-14T11:32:50.492Z,14.74
2018-03-14T11:35:18.042Z,14.67
2018-03-14T11:37:45.611Z,14.66
2018-03-14T11:40:13.392Z,14.44
2018-03-14T11:42:40.936Z,14.45
2018-03-14T11:45:08.499Z,14.39
2018-03-14T11:47:36.071Z,14.27
2018-03-14T11:50:03.635Z,14.28
2018-03-14T11:52:31.173Z,14.33
2018-03-14T11:54:58.895Z,14.52
2018-03-14T11:57:26.443Z,14.68
2018-03-14T11:59:53.986Z,14.74
2018-03-14T12:02:21.531Z,14.82
2018-03-14T12:04:49.084Z,14.82
2018-03-14T12:07:16.675Z,14.76
2018-03-14T12:09:44.216Z,14.77
2018-03-14T12:12:11.760Z,14.81
2018-03-14T12:14:39.490Z,14.89
2018-03-14T12:17:07.042Z,14.96
2018-03-14T12:19:34.591Z,15.12
2018-03-14T12:22:02.202Z,15.22
2018-03-14T12:24:29.750Z,15.27
2018-03-14T12:26:57.319Z,15.41
2018-03-14T12:29:24.929Z,15.45
2018-03-14T12:31:52.966Z,15.59
2018-03-14T12:34:20.511Z,15.49
2018-03-14T12:36:49.727Z,15.31
2018-03-14T12:39:17.278Z,15.37
2018-03-14T12:41:44.841Z,15.42
2018-03-14T12:44:12.534Z,15.40
2018-03-14T12:46:40.076Z,15.38
2018-03-14T12:49:07.626Z,15.32
2018-03-14T12:51:35.367Z,15.39
2018-03-14T12:54:02.971Z,15.23
2018-03-14T12:56:30.508Z,15.23
2018-03-14T12:58:58.090Z,15.14
2018-03-14T13:01:25.649Z,14.98
2018-03-14T13:03:53.190Z,15.05
2018-03-14T13:06:20.797Z,14.96
2018-03-14T13:08:48.340Z,14.80
2018-03-14T13:11:15.912Z,14.64
2018-03-14T13:13:43.684Z,14.52
2018-03-14T13:16:12.248Z,14.34
2018-03-14T13:18:39.803Z,14.26
2018-03-14T13:21:07.586Z,14.20
2018-03-14T13:23:35.153Z,14.10
2018-03-14T13:26:02.709Z,13.98
2018-03-14T13:28:31.463Z,13.90
2018-03-14T13:30:59.021Z,13.84
2018-03-14T13:33:26.566Z,13.77
2018-03-14T13:35:54.242Z,13.72
2018-03-14T13:38:21.790Z,13.51
2018-03-14T13:40:49.377Z,13.29
2018-03-14T13:43:17.090Z,13.19
2018-03-14T13:45:44.636Z,13.02
2018-03-14T13:48:12.207Z,12.96
2018-03-14T13:50:39.799Z,12.85
2018-03-14T13:53:07.346Z,12.72
2018-03-14T13:55:34.884Z,12.75
2018-03-14T13:58:02.647Z,12.61
2018-03-14T14:00:30.229Z,12.53
2018-03-14T14:02:57.776Z,12.36
2018-03-14T14:05:25.356Z,12.22
2018-03-14T14:07:52.896Z,12.22
2018-03-14T14:10:20.456Z,12.18
2018-03-14T14:12:48.148Z,12.10
2018-03-14T14:15:15.693Z,12.12
2018-03-14T14:17:43.241Z,12.07
2018-03-14T14:20:10.863Z,12.05
2018-03-14T14:22:38.405Z,12.14
2018-03-14T14:25:05.971Z,11.96
2018-03-14T14:27:33.560Z,12.01
2018-03-14T14:30:01.105Z,12.02
2018-03-14T14:32:28.656Z,12.09
2018-03-14T14:34:56.382Z,12.05
2018-03-14T14:37:23.912Z,11.99
2018-03-14T14:39:51.449Z,12.00
2018-03-14T14:42:19.035Z,11.99
2018-03-14T14:44:46.578Z,12.03
2018-03-14T14:47:14.127Z,11.96
2018-03-14T14:49:41.699Z,11.93
2018-03-14T14:52:09.243Z,11.90
2018-03-14T14:54:36.798Z,11.89
2018-03-14T14:57:04.547Z,11.83
2018-03-14T14:59:32.107Z,11.82
2018-03-14T15:01:59.665Z,11.81
2018-03-14T15:04:27.223Z,11.80
2018-03-14T15:06:54.767Z,11.79
2018-03-14T15:09:22.360Z,11.79
2018-03-14T15:11:49.962Z,11.69
2018-03-14T15:14:17.510Z,11.66
2018-03-14T15:16:45.110Z,11.63
2018-03-14T15:19:12.660Z,11.64
2018-03-14T15:21:40.202Z,11.67
2018-03-14T15:24:07.931Z,11.64
2018-03-14T15:26:35.491Z,11.62
2018-03-14T15:29:03.068Z,11.61
2018-03-14T15:31:30.667Z,11.62
2018-03-14T15:33:58.226Z,11.58
2018-03-14T15:36:25.779Z,11.51
2018-03-14T15:38:53.471Z,11.48
2018-03-14T15:41:21.007Z,11.41
2018-03-14T15:43:48.571Z,11.37
2018-03-14T15:46:16.147Z,11.30
2018-03-14T15:48:43.711Z,11.21
2018-03-14T15:51:11.253Z,11.09
2018-03-14T15:53:38.940Z,10.99
2018-03-14T15:56:06.479Z,10.99
2018-03-14T15:58:34.054Z,10.91
2018-03-14T16:01:01.774Z,10.77
2018-03-14T16:03:29.331Z,10.58
2018-03-14T16:05:56.881Z,10.43
2018-03-14T16:08:24.749Z,10.28
2018-03-14T16:10:52.304Z,10.18
2018-03-14T16:13:19.890Z,10.04
2018-03-14T16:15:47.484Z,9.94
2018-03-14T16:18:15.050Z,9.88
2018-03-14T16:20:42.612Z,9.81
2018-03-14T16:23:10.207Z,9.75
2018-03-14T16:25:37.759Z,9.71
2018-03-14T16:28:05.337Z,9.66
2018-03-14T16:30:33.088Z,9.62
2018-03-14T16:33:00.995Z,9.59
2018-03-14T16:35:28.543Z,9.59
2018-03-14T16:37:56.138Z,9.58
2018-03-14T16:40:23.696Z,9.55
2018-03-14T16:42:51.238Z,9.55
2018-03-14T16:45:18.971Z,9.56
2018-03-14T16:47:46.517Z,9.50
2018-03-14T16:50:14.074Z,9.52
2018-03-14T16:52:41.769Z,9.55
2018-03-14T16:55:09.320Z,9.52
2018-03-14T16:57:36.864Z,9.48
2018-03-14T17:00:04.500Z,9.46
2018-03-14T17:02:32.041Z,9.40
2018-03-14T17:04:59.575Z,9.41
2018-03-14T17:07:27.174Z,9.39
2018-03-14T17:09:54.706Z,9.36
2018-03-14T17:12:22.260Z,9.38
2018-03-14T17:14:49.838Z,9.37
2018-03-14T17:17:17.431Z,9.34
2018-03-14T17:19:44.975Z,9.35
2018-03-14T17:22:12.560Z,9.33
2018-03-14T17:24:40.120Z,9.34
2018-03-14T17:27:07.667Z,9.30
2018-03-14T17:29:35.410Z,9.26
2018-03-14T17:32:02.967Z,9.23
2018-03-14T17:34:30.510Z,9.22
2018-03-14T17:36:58.212Z,9.18
2018-03-14T17:39:25.785Z,9.14
2018-03-14T17:41:53.334Z,9.12
2018-03-14T17:44:20.921Z,9.11
2018-03-14T17:46:48.475Z,9.13
2018-03-14T17:49:16.047Z,9.13
2018-03-14T17:51:43.768Z,9.11
2018-03-14T17:54:11.333Z,9.09
2018-03-14T17:56:38.884Z,9.07
2018-03-14T17:59:06.454Z,9.04
2018-03-14T18:01:34.031Z,9.02
2018-03-14T18:04:01.587Z,8.99
2018-03-14T18:06:29.446Z,8.95
2018-03-14T18:08:57.012Z,8.93
2018-03-14T18:11:24.571Z,8.92
2018-03-14T18:13:52.267Z,8.90
2018-03-14T18:16:19.818Z,8.91
2018-03-14T18:18:47.385Z,8.88
2018-03-14T18:21:15.263Z,8.88
2018-03-14T18:23:42.848Z,8.85
2018-03-14T18:26:10.391Z,8.83
2018-03-14T18:28:37.984Z,8.83
2018-03-14T18:31:06.562Z,8.81
2018-03-14T18:33:34.109Z,8.77
2018-03-14T18:36:01.851Z,8.75
2018-03-14T18:38:29.394Z,8.70
2018-03-14T18:40:56.974Z,8.68
2018-03-14T18:43:24.854Z,8.58
2018-03-14T18:45:52.401Z,8.47
2018-03-14T18:48:19.964Z,8.40
2018-03-14T18:50:47.558Z,8.29
2018-03-14T18:53:15.111Z,8.21
2018-03-14T18:55:42.661Z,8.10
2018-03-14T18:58:10.240Z,8.02
2018-03-14T19:00:37.787Z,7.93
2018-03-14T19:03:05.341Z,7.90
2018-03-14T19:05:32.920Z,7.85
2018-03-14T19:08:00.512Z,7.79
2018-03-14T19:10:28.090Z,7.76
2018-03-14T19:12:55.671Z,7.70
2018-03-14T19:15:23.237Z,7.67
2018-03-14T19:17:50.806Z,7.69
2018-03-14T19:20:18.394Z,7.67
2018-03-14T19:22:45.947Z,7.63
2018-03-14T19:25:13.509Z,7.61
2018-03-14T19:27:41.386Z,7.61
2018-03-14T19:30:08.983Z,7.61
2018-03-14T19:32:36.535Z,7.67
2018-03-14T19:35:04.227Z,7.68
2018-03-14T19:37:31.795Z,7.67
2018-03-14T19:39:59.387Z,7.71
2018-03-14T19:42:27.120Z,7.77
2018-03-14T19:44:54.674Z,7.76
2018-03-14T19:47:22.239Z,7.82
2018-03-14T19:49:49.830Z,7.90
2018-03-14T19:52:17.392Z,7.93
2018-03-14T19:54:44.945Z,7.96
2018-03-14T19:57:12.542Z,7.97
2018-03-14T19:59:40.102Z,7.99
2018-03-14T20:02:07.665Z,8.05
2018-03-14T20:04:35.217Z,8.08
2018-03-14T20:07:02.764Z,8.10
2018-03-14T20:09:30.357Z,8.11
2018-03-14T20:11:57.901Z,8.17
2018-03-14T20:14:25.475Z,8.22
2018-03-14T20:16:53.146Z,8.22
2018-03-14T20:19:20.695Z,8.22
2018-03-14T20:21:48.241Z,8.24
2018-03-14T20:24:15.909Z,8.30
2018-03-14T20:26:43.456Z,8.35
2018-03-14T20:29:10.998Z,8.36
2018-03-14T20:31:38.585Z,8.37
2018-03-14T20:34:06.146Z,8.38
2018-03-14T20:36:33.741Z,8.37
2018-03-14T20:39:01.531Z,8.34
2018-03-14T20:41:29.061Z,8.34
2018-03-14T20:43:56.649Z,8.31
2018-03-14T20:46:24.337Z,8.33
2018-03-14T20:48:51.893Z,8.32
2018-03-14T20:51:19.443Z,8.34
2018-03-14T20:53:47.389Z,8.32
2018-03-14T20:56:14.952Z,8.29
2018-03-14T20:58:42.506Z,8.24
2018-03-14T21:01:10.098Z,8.22
2018-03-14T21:03:37.644Z,8.23
2018-03-14T21:06:05.254Z,8.24
2018-03-14T21:08:32.814Z,8.20
2018-03-14T21:11:00.403Z,8.14
2018-03-14T21:13:27.964Z,8.11
2018-03-14T21:15:55.842Z,8.05
2018-03-14T21:18:23.383Z,7.93
2018-03-14T21:20:50.924Z,7.83
2018-03-14T21:23:18.795Z,7.72
2018-03-14T21:25:46.341Z,7.63
2018-03-14T21:28:13.883Z,7.59
2018-03-14T21:30:41.454Z,7.51
2018-03-14T21:33:09.091Z,7.49
2018-03-14T21:35:36.665Z,7.44
2018-03-14T21:38:04.452Z,7.45
2018-03-14T21:40:31.975Z,7.47
2018-03-14T21:42:59.528Z,7.44
2018-03-14T21:45:27.218Z,7.43
2018-03-14T21:47:54.787Z,7.39
2018-03-14T21:50:22.340Z,7.35
2018-03-14T21:52:49.924Z,7.31
2018-03-14T21:55:17.535Z,7.28
2018-03-14T21:57:45.106Z,7.27
2018-03-14T22:00:12.862Z,7.21
2018-03-14T22:02:40.408Z,7.21
2018-03-14T22:05:07.958Z,7.21
2018-03-14T22:07:35.545Z,7.19
2018-03-14T22:10:03.111Z,7.18
2018-03-14T22:12:30.664Z,7.17
2018-03-14T22:14:58.258Z,7.17
2018-03-14T22:17:25.807Z,7.20
2018-03-14T22:19:53.386Z,7.17
2018-03-14T22:22:20.983Z,7.20
2018-03-14T22:24:48.531Z,7.19
2018-03-14T22:27:16.096Z,7.17
2018-03-14T22:29:43.691Z,7.15
2018-03-14T22:32:12.037Z,7.15
2018-03-14T22:34:39.590Z,7.11
2018-03-14T22:37:07.212Z,7.10
2018-03-14T22:39:34.750Z,7.07
2018-03-14T22:42:02.304Z,7.03
2018-03-14T22:44:30.188Z,6.98
2018-03-14T22:46:57.746Z,6.90
2018-03-14T22:49:25.324Z,6.82
2018-03-14T22:51:52.919Z,6.74
2018-03-14T22:54:20.490Z,6.73
2018-03-14T22:56:48.055Z,6.68
2018-03-14T22:59:15.757Z,6.62
2018-03-14T23:01:43.298Z,6.61
2018-03-14T23:04:10.857Z,6.61
2018-03-14T23:06:38.461Z,6.57
2018-03-14T23:09:06.019Z,6.57
2018-03-14T23:11:33.567Z,6.56
2018-03-14T23:14:01.135Z,6.56
2018-03-14T23:16:28.675Z,6.60
2018-03-14T23:18:56.220Z,6.57
2018-03-14T23:21:23.891Z,6.57
2018-03-14T23:23:51.441Z,6.55
2018-03-14T23:26:18.995Z,6.56
2018-03-14T23:28:46.577Z,6.57
2018-03-14T23:31:14.130Z,6.55
2018-03-14T23:33:41.693Z,6.56
2018-03-14T23:36:09.429Z,6.56
2018-03-14T23:38:36.982Z,6.51
2018-03-14T23:41:04.585Z,6.54
2018-03-14T23:43:32.182Z,6.51
2018-03-14T23:45:59.726Z,6.50
2018-03-14T23:48:27.266Z,6.48
2018-03-14T23:50:54.991Z,6.48
2018-03-14T23:53:22.523Z,6.47
2018-03-14T23:55:50.066Z,6.50
2018-03-14T23:58:17.818Z,6.52
